Home   Weather   Israel   Petah Tikva   Past weeks
Flag for Israel

Past Weather in Petah Tikva, Israel — Yesterday and Last 2 Weeks

Currently: 72 °F. Clear. (Weather station: Ben Gurion International Airport, Israel). See more current weather

Past Weather in Petah Tikva — Graph

°F

Petah Tikva Temperature Yesterday

Maximum temperature yesterday: 91 °F (at 2:20 pm)
Minimum temperature yesterday: 68 °F (at 5:50 am)
Average temperature yesterday: 80 °F

High & Low Weather Summary for the Past Weeks

 TemperatureHumidityPressure
High91 °F (Sep 24, 1:20 pm)79% (Sep 13, 1:20 am)29.98 "Hg (Sep 13, 1:20 am)
Low68 °F (Sep 26, 5:50 am)27% (Sep 24, 11:50 am)29.71 "Hg (Sep 12, 12:50 pm)
Average80 °F60%29.83 "Hg
* Reported Sep 12 4:20 am — Sep 27 4:20 am, Petah Tikva. Weather by CustomWeather, © 2022

Note: Actual official high and low records may vary slightly from our data, if they occured in-between our weather recording intervals... More about our weather records

Petah Tikva Weather History for the Previous 24 Hours

Scroll right to see more
 ConditionsComfort  
Time TempWeatherWind HumidityBarometerVisibility
4:20 am
Tue, Sep 27
72 °FClear.5 mph69%29.92 "Hg10 mi
3:50 am73 °FClear.5 mph69%29.92 "Hg10 mi
2:20 am75 °FClear.2 mph74%29.92 "Hg10 mi
12:50 am77 °FClear.2 mph74%29.92 "Hg10 mi
12:20 am77 °FClear.2 mph74%29.92 "Hg10 mi
11:50 pm
Mon, Sep 26
77 °FClear.3 mph74%29.95 "Hg10 mi
11:20 pm77 °FClear.5 mph69%29.95 "Hg10 mi
10:50 pm77 °FClear.3 mph74%29.95 "Hg10 mi
10:20 pm79 °FClear.5 mph65%29.95 "Hg10 mi
9:50 pm79 °FClear.6 mph65%29.95 "Hg10 mi
9:20 pm79 °FClear.6 mph65%29.95 "Hg10 mi
8:50 pm81 °FClear.7 mph62%29.95 "Hg10 mi
8:20 pm81 °FClear.8 mph58%29.92 "Hg10 mi
7:50 pm82 °FClear.9 mph48%29.92 "Hg10 mi
7:20 pm82 °FClear.8 mph45%29.92 "Hg10 mi
6:50 pm82 °FClear.7 mph51%29.89 "Hg10 mi
6:20 pm84 °FSunny.9 mph45%29.89 "Hg10 mi
5:20 pm88 °FSunny.12 mph35%29.89 "Hg10 mi
3:50 pm90 °FSunny.13 mph36%29.89 "Hg10 mi
3:20 pm90 °FSunny.12 mph33%29.92 "Hg10 mi
2:50 pm90 °FPassing clouds.12 mph31%29.89 "HgN/A
2:20 pm91 °FSunny.13 mph30%29.89 "Hg10 mi
1:50 pm90 °FSunny.10 mph33%29.92 "Hg10 mi
1:20 pm90 °FPassing clouds.9 mph31%29.92 "HgN/A
12:50 pm90 °FSunny.12 mph31%29.92 "Hg10 mi
12:20 pm90 °FSunny.10 mph29%29.95 "Hg10 mi
11:50 am90 °FSunny.7 mph29%29.95 "Hg10 mi
11:20 am90 °FSunny.3 mph29%29.95 "Hg10 mi
9:50 am82 °FSunny.2 mph45%29.95 "Hg10 mi
9:20 am81 °FSunny.1 mph48%29.95 "Hg10 mi
8:50 am77 °FSunny.2 mph54%29.95 "Hg10 mi
8:20 am75 °FSunny.2 mph50%29.95 "Hg10 mi
7:50 am72 °FSunny.1 mph57%29.95 "Hg10 mi
7:20 am70 °FSunny.3 mph50%29.92 "Hg10 mi
6:50 am68 °FSunny.1 mph53%29.92 "Hg10 mi
6:20 am70 °FClear.5 mph60%29.92 "Hg10 mi
Weather by CustomWeather, © 2022

See weather overview